createdAt,value
2023-01-22T00:04:26.017Z,38.13
2023-01-22T00:09:28.819Z,26.48
2023-01-22T00:14:31.641Z,31.70
2023-01-22T00:19:34.426Z,36.67
2023-01-22T00:24:37.808Z,37.67
2023-01-22T00:29:41.338Z,39.15
2023-01-22T00:34:50.867Z,33.83
2023-01-22T00:39:54.190Z,36.10
2023-01-22T00:44:56.956Z,42.75
2023-01-22T00:49:59.972Z,39.73
2023-01-22T00:55:02.724Z,38.50
2023-01-22T01:00:06.125Z,9.50
2023-01-22T01:05:09.180Z,46.37
2023-01-22T01:10:12.239Z,28.58
2023-01-22T01:15:15.127Z,29.43
2023-01-22T01:20:18.223Z,35.05
2023-01-22T01:25:21.268Z,29.10
2023-01-22T01:30:24.088Z,28.60
2023-01-22T01:35:26.922Z,32.38
2023-01-22T01:40:29.649Z,30.57
2023-01-22T01:45:35.585Z,33.00
2023-01-22T01:50:41.298Z,25.48
2023-01-22T01:55:44.132Z,27.17
2023-01-22T02:00:52.307Z,28.08
2023-01-22T02:05:55.436Z,22.70
2023-01-22T02:10:59.133Z,26.63
2023-01-22T02:16:02.042Z,17.92
2023-01-22T02:21:04.906Z,23.90
2023-01-22T02:26:09.406Z,19.48
2023-01-22T02:31:12.646Z,14.30
2023-01-22T02:36:16.483Z,16.90
2023-01-22T02:41:19.406Z,24.85
2023-01-22T02:46:22.186Z,16.27
2023-01-22T02:51:26.899Z,20.45
2023-01-22T02:56:29.983Z,20.40
2023-01-22T03:01:33.761Z,15.82
2023-01-22T03:06:36.907Z,15.63
2023-01-22T03:11:41.971Z,27.07
2023-01-22T03:17:07.109Z,16.85
2023-01-22T03:22:11.311Z,18.00
2023-01-22T03:27:14.029Z,16.40
2023-01-22T03:32:17.593Z,24.85
2023-01-22T03:37:20.523Z,5.23
2023-01-22T03:42:27.157Z,15.13
2023-01-22T03:47:30.541Z,15.47
2023-01-22T03:52:33.598Z,15.13
2023-01-22T03:57:38.488Z,4.80
2023-01-22T04:02:41.271Z,13.00
2023-01-22T04:07:53.789Z,19.42
2023-01-22T04:13:01.278Z,6.67
2023-01-22T04:18:04.045Z,13.77
2023-01-22T04:23:22.827Z,12.98
2023-01-22T04:28:27.935Z,13.10
2023-01-22T04:33:32.467Z,15.55
2023-01-22T04:38:45.397Z,10.90
2023-01-22T04:43:48.060Z,19.02
2023-01-22T04:48:51.134Z,12.15
2023-01-22T04:53:55.038Z,14.70
2023-01-22T04:58:58.648Z,10.75
2023-01-22T05:04:02.875Z,19.37
2023-01-22T05:09:09.009Z,15.88
2023-01-22T05:14:31.930Z,10.38
2023-01-22T05:19:37.817Z,13.30
2023-01-22T05:24:45.466Z,11.15
2023-01-22T05:29:48.306Z,8.30
2023-01-22T05:35:06.860Z,12.75
2023-01-22T05:40:13.056Z,10.18
2023-01-22T05:45:15.881Z,12.03
2023-01-22T05:50:41.892Z,12.05
2023-01-22T05:55:46.859Z,12.23
2023-01-22T06:00:53.304Z,9.25
2023-01-22T06:06:08.759Z,2.53
2023-01-22T06:11:14.258Z,9.20
2023-01-22T06:16:21.119Z,8.85
2023-01-22T06:21:44.202Z,7.70
2023-01-22T06:26:47.584Z,13.77
2023-01-22T06:31:51.307Z,3.00
2023-01-22T06:36:55.467Z,10.93
2023-01-22T06:42:01.975Z,8.23
2023-01-22T06:47:05.495Z,6.60
2023-01-22T06:52:08.438Z,9.45
2023-01-22T06:57:11.189Z,12.13
2023-01-22T07:02:19.377Z,7.17
2023-01-22T07:07:22.039Z,2.65
2023-01-22T07:12:25.341Z,15.13
2023-01-22T07:17:28.174Z,18.30
2023-01-22T07:22:32.711Z,3.53
2023-01-22T07:27:36.309Z,10.83
2023-01-22T07:32:39.035Z,17.85
2023-01-22T07:37:41.816Z,8.67
2023-01-22T07:42:44.763Z,7.43
2023-01-22T07:47:59.807Z,10.93
2023-01-22T07:53:02.745Z,9.47
2023-01-22T07:58:07.269Z,8.43
2023-01-22T08:03:14.837Z,9.70
2023-01-22T08:08:23.144Z,7.55
2023-01-22T08:13:26.123Z,8.63
2023-01-22T08:18:29.480Z,11.40
2023-01-22T08:23:32.312Z,8.63
2023-01-22T08:28:35.132Z,4.20
2023-01-22T08:33:37.991Z,4.00
2023-01-22T08:38:40.770Z,5.55
2023-01-22T08:43:43.741Z,10.33
2023-01-22T08:48:46.540Z,6.13
2023-01-22T08:53:49.779Z,3.70
2023-01-22T08:58:53.149Z,9.70
2023-01-22T09:03:55.861Z,12.35
2023-01-22T09:08:59.627Z,12.73
2023-01-22T09:14:02.907Z,15.85
2023-01-22T09:19:07.132Z,14.43
2023-01-22T09:24:10.158Z,10.23
2023-01-22T09:29:12.987Z,15.15
2023-01-22T09:34:15.739Z,8.33
2023-01-22T09:39:19.019Z,10.63
2023-01-22T09:44:43.320Z,14.17
2023-01-22T09:50:01.037Z,10.35
2023-01-22T09:55:04.108Z,12.48
2023-01-22T10:00:20.068Z,11.57
2023-01-22T10:05:43.299Z,7.60
2023-01-22T10:10:46.843Z,4.30
2023-01-22T10:15:52.425Z,2.83
2023-01-22T10:20:56.610Z,11.40
2023-01-22T10:26:13.248Z,2.50
2023-01-22T10:31:33.736Z,15.20
2023-01-22T10:36:37.289Z,11.87
2023-01-22T10:41:41.531Z,12.27
2023-01-22T11:02:51.188Z,23.20
2023-01-22T11:08:07.303Z,20.73
2023-01-22T11:13:20.322Z,20.37
2023-01-22T11:18:45.853Z,11.82
2023-01-22T11:24:04.432Z,12.57
2023-01-22T11:29:15.791Z,12.70
2023-01-22T11:34:30.565Z,16.98
2023-01-22T11:39:45.707Z,21.33
2023-01-22T11:45:00.800Z,15.10
2023-01-22T11:50:20.023Z,5.30
2023-01-22T11:56:06.273Z,11.90
2023-01-22T12:01:36.759Z,14.57
2023-01-22T12:06:48.431Z,12.83
2023-01-22T12:12:17.460Z,17.88
2023-01-22T12:17:28.591Z,3.88
2023-01-22T12:22:57.271Z,15.23
2023-01-22T12:28:19.210Z,15.82
2023-01-22T12:33:26.186Z,7.10
2023-01-22T12:38:42.299Z,14.45
2023-01-22T12:44:27.389Z,22.15
2023-01-22T12:49:30.197Z,16.97
2023-01-22T12:54:36.482Z,22.40
2023-01-22T12:59:39.431Z,16.20
2023-01-22T13:04:42.385Z,12.20
2023-01-22T13:09:45.155Z,7.13
2023-01-22T13:14:50.001Z,16.67
2023-01-22T13:19:53.244Z,22.52
2023-01-22T13:24:58.717Z,15.70
2023-01-22T13:30:09.797Z,22.55
2023-01-22T13:35:15.497Z,18.80
2023-01-22T13:40:26.066Z,17.63
2023-01-22T13:45:32.064Z,6.28
2023-01-22T13:50:35.896Z,19.73
2023-01-22T13:55:38.677Z,19.60
2023-01-22T14:00:52.204Z,14.23
2023-01-22T14:06:13.412Z,16.07
2023-01-22T14:11:17.173Z,18.35
2023-01-22T14:16:20.041Z,20.20
2023-01-22T14:21:22.866Z,12.40
2023-01-22T14:26:25.786Z,15.32
2023-01-22T14:31:28.814Z,10.67
2023-01-22T14:36:31.907Z,27.90
2023-01-22T14:41:34.773Z,23.73
2023-01-22T14:46:38.438Z,21.50
2023-01-22T14:51:41.567Z,19.77
2023-01-22T14:56:44.397Z,23.13
2023-01-22T15:01:47.156Z,23.25
2023-01-22T15:06:49.981Z,25.40
2023-01-22T15:11:52.775Z,20.27
2023-01-22T15:16:55.557Z,22.13
2023-01-22T15:21:58.345Z,23.93
2023-01-22T15:27:01.208Z,27.77
2023-01-22T15:32:04.498Z,24.80
2023-01-22T15:37:07.586Z,27.10
2023-01-22T15:42:10.377Z,33.38
2023-01-22T15:47:14.678Z,32.97
2023-01-22T15:52:18.293Z,30.67
2023-01-22T15:57:21.128Z,27.87
2023-01-22T16:02:24.028Z,30.23
2023-01-22T16:07:26.812Z,35.55
2023-01-22T16:12:31.499Z,44.57
2023-01-22T16:17:34.300Z,43.88
2023-01-22T16:22:37.232Z,42.73
2023-01-22T16:27:39.966Z,38.92
2023-01-22T16:32:43.717Z,42.30
2023-01-22T16:37:46.526Z,34.87
2023-01-22T16:42:59.791Z,45.72
2023-01-22T16:52:05.092Z,36.17
2023-01-22T16:57:14.094Z,37.20
2023-01-22T17:02:19.444Z,38.97
2023-01-22T17:07:33.194Z,35.53
2023-01-22T17:12:36.717Z,38.40
2023-01-22T17:17:40.055Z,39.10
2023-01-22T17:22:43.007Z,37.03
2023-01-22T17:27:46.063Z,43.70
2023-01-22T17:32:49.013Z,41.73
2023-01-22T17:37:51.806Z,40.70
2023-01-22T17:42:55.022Z,51.97
2023-01-22T17:47:57.742Z,35.57
2023-01-22T17:53:00.515Z,44.55
2023-01-22T17:58:04.167Z,47.33
2023-01-22T18:03:06.879Z,33.90
2023-01-22T18:08:09.814Z,34.58
2023-01-22T18:13:12.717Z,34.90
2023-01-22T18:18:16.981Z,38.28
2023-01-22T18:23:19.894Z,37.50
2023-01-22T18:28:24.907Z,31.63
2023-01-22T18:33:27.721Z,21.08
2023-01-22T18:38:31.432Z,22.33
2023-01-22T18:43:34.341Z,20.80
2023-01-22T18:48:37.751Z,10.47
2023-01-22T18:53:42.286Z,19.48
2023-01-22T18:58:46.307Z,19.50
2023-01-22T19:03:54.622Z,18.90
2023-01-22T19:09:12.760Z,20.50
2023-01-22T19:14:17.635Z,28.83
2023-01-22T19:19:21.911Z,25.25
2023-01-22T19:24:28.409Z,22.90
2023-01-22T19:29:31.218Z,21.13
2023-01-22T19:34:34.108Z,26.15
2023-01-22T19:39:37.510Z,22.00
2023-01-22T19:44:42.002Z,10.63
2023-01-22T19:49:45.112Z,14.23
2023-01-22T19:54:48.566Z,11.30
2023-01-22T19:59:57.575Z,6.55
2023-01-22T20:05:00.645Z,7.33
2023-01-22T20:10:04.579Z,8.60
2023-01-22T20:15:08.250Z,10.15
2023-01-22T20:20:11.721Z,10.30
2023-01-22T20:25:15.673Z,12.55
2023-01-22T20:30:18.832Z,11.87
2023-01-22T20:35:21.808Z,18.00
2023-01-22T20:40:26.048Z,15.45
2023-01-22T20:45:28.863Z,23.83
2023-01-22T20:50:31.930Z,20.27
2023-01-22T20:55:35.202Z,17.63
2023-01-22T21:00:40.098Z,15.35
2023-01-22T21:05:43.181Z,15.70
2023-01-22T21:10:58.955Z,20.10
2023-01-22T21:16:14.213Z,19.35
2023-01-22T21:21:20.258Z,12.87
2023-01-22T21:26:26.365Z,14.43
2023-01-22T21:31:29.931Z,13.18
2023-01-22T21:36:36.751Z,19.00
2023-01-22T21:41:39.790Z,21.55
2023-01-22T21:46:44.438Z,19.50
2023-01-22T21:51:55.781Z,15.70
2023-01-22T21:56:58.650Z,13.88
2023-01-22T22:02:01.736Z,13.90
2023-01-22T22:07:04.557Z,21.40
2023-01-22T22:12:07.886Z,14.97
2023-01-22T22:17:11.112Z,16.60
2023-01-22T22:22:13.858Z,19.17
2023-01-22T22:27:16.530Z,15.73
2023-01-22T22:32:20.806Z,17.55
2023-01-22T22:37:23.508Z,21.80
2023-01-22T22:42:26.245Z,17.48
2023-01-22T22:47:29.341Z,20.02
2023-01-22T22:52:34.311Z,15.40
2023-01-22T22:57:37.009Z,18.98
2023-01-22T23:02:39.878Z,15.30
2023-01-22T23:07:42.490Z,18.73
2023-01-22T23:12:45.164Z,21.02
2023-01-22T23:17:47.811Z,22.07
2023-01-22T23:22:53.549Z,17.67
2023-01-22T23:27:56.248Z,21.30
2023-01-22T23:33:00.670Z,17.45
2023-01-22T23:38:03.454Z,17.02
2023-01-22T23:43:06.272Z,14.40
2023-01-22T23:48:09.001Z,16.33
2023-01-22T23:53:11.783Z,13.13
2023-01-22T23:58:15.336Z,18.42
